createdAt,value
2023-04-16T00:01:58.307Z,26.10
2023-04-16T00:04:25.241Z,22.15
2023-04-16T00:06:52.045Z,23.98
2023-04-16T00:09:18.754Z,23.02
2023-04-16T00:11:45.477Z,23.52
2023-04-16T00:14:12.210Z,26.42
2023-04-16T00:16:38.945Z,23.77
2023-04-16T00:19:05.800Z,25.45
2023-04-16T00:21:32.608Z,23.40
2023-04-16T00:23:59.368Z,25.23
2023-04-16T00:26:26.225Z,23.42
2023-04-16T00:28:53.528Z,27.85
2023-04-16T00:31:27.734Z,26.63
2023-04-16T00:33:56.207Z,25.75
2023-04-16T00:36:27.560Z,25.20
2023-04-16T00:38:54.962Z,20.63
2023-04-16T00:41:23.227Z,24.83
2023-04-16T00:43:50.317Z,22.80
2023-04-16T00:46:17.270Z,20.58
2023-04-16T00:48:44.968Z,19.45
2023-04-16T00:51:12.132Z,20.42
2023-04-16T00:53:38.997Z,23.30
2023-04-16T00:56:07.509Z,21.35
2023-04-16T00:58:35.422Z,22.45
2023-04-16T01:01:02.579Z,21.27
2023-04-16T01:03:38.711Z,21.02
2023-04-16T01:06:07.686Z,23.98
2023-04-16T01:08:34.488Z,22.52
2023-04-16T01:11:01.441Z,23.95
2023-04-16T01:13:28.260Z,19.52
2023-04-16T01:15:55.466Z,24.15
2023-04-16T01:18:23.610Z,21.13
2023-04-16T01:20:51.449Z,20.33
2023-04-16T01:23:18.869Z,19.25
2023-04-16T01:25:46.339Z,19.98
2023-04-16T01:28:13.086Z,21.75
2023-04-16T01:30:39.788Z,21.58
2023-04-16T01:33:18.651Z,22.25
2023-04-16T01:35:45.685Z,21.58
2023-04-16T01:38:14.572Z,23.05
2023-04-16T01:40:41.314Z,16.25
2023-04-16T01:43:08.061Z,20.13
2023-04-16T01:45:35.483Z,22.13
2023-04-16T01:48:02.643Z,18.33
2023-04-16T01:50:30.047Z,19.45
2023-04-16T01:52:56.807Z,19.35
2023-04-16T01:55:23.582Z,20.10
2023-04-16T01:57:51.008Z,20.23
2023-04-16T02:00:18.258Z,21.58
2023-04-16T02:02:49.461Z,18.75
2023-04-16T02:05:23.996Z,18.10
2023-04-16T02:07:50.710Z,20.20
2023-04-16T02:10:17.504Z,18.50
2023-04-16T02:12:44.712Z,15.77
2023-04-16T02:15:12.893Z,19.27
2023-04-16T02:17:39.638Z,19.42
2023-04-16T02:20:11.112Z,20.90
2023-04-16T02:22:48.182Z,17.13
2023-04-16T02:25:18.447Z,19.67
2023-04-16T02:27:46.161Z,23.65
2023-04-16T02:30:24.518Z,19.73
2023-04-16T02:32:52.441Z,24.05
2023-04-16T02:35:19.913Z,20.98
2023-04-16T02:37:46.641Z,20.15
2023-04-16T02:40:13.335Z,21.77
2023-04-16T02:42:40.023Z,23.02
2023-04-16T02:45:08.029Z,21.83
2023-04-16T02:47:34.726Z,22.38
2023-04-16T02:50:01.452Z,23.63
2023-04-16T02:52:28.214Z,23.25
2023-04-16T02:54:55.550Z,21.73
2023-04-16T02:57:22.268Z,24.73
2023-04-16T02:59:49.035Z,23.90
2023-04-16T03:02:16.457Z,21.42
2023-04-16T03:04:43.428Z,28.33
2023-04-16T03:07:11.304Z,24.45
2023-04-16T03:09:38.264Z,28.00
2023-04-16T03:12:05.184Z,25.77
2023-04-16T03:14:32.032Z,23.02
2023-04-16T03:16:58.979Z,25.08
2023-04-16T03:19:26.131Z,24.20
2023-04-16T03:21:52.913Z,23.52
2023-04-16T03:24:19.601Z,24.25
2023-04-16T03:26:48.952Z,24.42
2023-04-16T03:29:15.889Z,24.98
2023-04-16T03:31:42.787Z,23.08
2023-04-16T03:34:09.816Z,24.45
2023-04-16T03:36:36.575Z,22.00
2023-04-16T03:39:03.598Z,23.92
2023-04-16T03:41:30.577Z,23.15
2023-04-16T03:43:58.029Z,22.23
2023-04-16T03:46:24.794Z,24.77
2023-04-16T03:48:52.357Z,23.45
2023-04-16T03:51:19.066Z,25.50
2023-04-16T03:53:46.226Z,22.75
2023-04-16T03:56:14.238Z,24.17
2023-04-16T03:58:41.214Z,24.55
2023-04-16T04:01:08.429Z,24.42
2023-04-16T04:03:36.761Z,25.02
2023-04-16T04:06:10.326Z,24.52
2023-04-16T04:08:37.109Z,21.70
2023-04-16T04:11:04.968Z,24.90
2023-04-16T04:13:33.398Z,27.30
2023-04-16T04:16:00.156Z,27.17
2023-04-16T04:18:27.914Z,25.27
2023-04-16T04:20:54.747Z,26.17
2023-04-16T04:23:25.516Z,25.58
2023-04-16T04:25:52.284Z,29.10
2023-04-16T04:28:19.061Z,27.20
2023-04-16T04:30:45.927Z,28.55
2023-04-16T04:33:13.182Z,29.98
2023-04-16T04:35:39.939Z,25.02
2023-04-16T04:38:08.244Z,29.60
2023-04-16T04:40:35.182Z,24.83
2023-04-16T04:43:03.150Z,30.63
2023-04-16T04:45:31.770Z,30.17
2023-04-16T04:47:59.096Z,30.15
2023-04-16T04:50:26.081Z,31.15
2023-04-16T04:52:52.768Z,32.08
2023-04-16T04:55:19.554Z,28.88
2023-04-16T04:57:46.486Z,27.38
2023-04-16T05:00:13.624Z,31.08
2023-04-16T05:03:02.074Z,30.20
2023-04-16T05:05:28.866Z,24.40
2023-04-16T05:07:55.805Z,32.22
2023-04-16T05:10:22.580Z,33.97
2023-04-16T05:12:49.352Z,27.70
2023-04-16T05:15:16.797Z,32.03
2023-04-16T05:17:43.519Z,33.40
2023-04-16T05:20:10.648Z,32.15
2023-04-16T05:22:37.342Z,37.08
2023-04-16T05:25:04.397Z,35.05
2023-04-16T05:27:31.133Z,30.27
2023-04-16T05:29:58.017Z,33.70
2023-04-16T05:32:28.030Z,36.30
2023-04-16T05:34:54.888Z,36.28
2023-04-16T05:37:21.628Z,33.67
2023-04-16T05:39:48.463Z,30.42
2023-04-16T05:42:15.280Z,38.38
2023-04-16T05:44:42.179Z,37.53
2023-04-16T05:47:09.614Z,40.03
2023-04-16T05:49:39.504Z,40.33
2023-04-16T05:52:06.380Z,38.13
2023-04-16T05:54:33.133Z,39.03
2023-04-16T05:57:01.244Z,42.60
2023-04-16T05:59:29.410Z,40.33
2023-04-16T06:01:56.369Z,43.00
2023-04-16T06:04:23.244Z,42.17
2023-04-16T06:06:50.150Z,46.47
2023-04-16T06:09:16.973Z,50.67
2023-04-16T06:11:43.780Z,43.55
2023-04-16T06:14:11.011Z,46.85
2023-04-16T06:16:38.889Z,47.75
2023-04-16T06:19:05.745Z,47.55
2023-04-16T06:21:32.671Z,44.58
2023-04-16T06:23:59.387Z,50.15
2023-04-16T06:26:26.861Z,45.95
2023-04-16T06:28:54.174Z,46.85
2023-04-16T06:31:21.257Z,45.83
2023-04-16T06:33:48.004Z,43.30
2023-04-16T06:36:14.736Z,52.58
2023-04-16T06:38:41.410Z,50.45
2023-04-16T06:41:08.191Z,55.40
2023-04-16T06:43:35.067Z,52.33
2023-04-16T06:46:01.744Z,48.22
2023-04-16T06:48:28.547Z,45.22
2023-04-16T06:50:56.147Z,52.22
2023-04-16T06:53:23.754Z,51.42
2023-04-16T06:55:50.721Z,44.60
2023-04-16T06:58:18.056Z,51.03
2023-04-16T07:00:45.512Z,45.78
2023-04-16T07:03:12.556Z,49.80
2023-04-16T07:05:39.514Z,42.47
2023-04-16T07:08:06.403Z,46.85
2023-04-16T07:10:33.524Z,47.83
2023-04-16T07:13:01.705Z,44.75
2023-04-16T07:15:28.834Z,50.25
2023-04-16T07:17:55.868Z,52.35
2023-04-16T07:20:22.609Z,45.20
2023-04-16T07:22:49.564Z,45.10
2023-04-16T07:25:16.432Z,48.10
2023-04-16T07:27:43.223Z,45.55
2023-04-16T07:30:10.211Z,46.20
2023-04-16T07:32:37.053Z,45.25
2023-04-16T07:35:04.187Z,44.85
2023-04-16T07:37:31.181Z,50.40
2023-04-16T07:39:57.952Z,47.95
2023-04-16T07:42:24.736Z,50.05
2023-04-16T07:44:51.566Z,45.10
2023-04-16T07:47:18.285Z,43.08
2023-04-16T07:49:45.021Z,41.47
2023-04-16T07:52:12.114Z,47.10
2023-04-16T07:54:38.889Z,45.97
2023-04-16T07:57:05.607Z,39.83
2023-04-16T07:59:32.374Z,43.80
2023-04-16T08:01:59.317Z,46.67
2023-04-16T08:04:26.640Z,37.33
2023-04-16T08:06:54.194Z,42.10
2023-04-16T08:09:22.427Z,42.95
2023-04-16T08:11:50.102Z,39.45
2023-04-16T08:14:17.433Z,42.03
2023-04-16T08:16:44.253Z,42.97
2023-04-16T08:19:11.236Z,43.50
2023-04-16T08:21:38.141Z,45.25
2023-04-16T08:24:04.894Z,41.00
2023-04-16T08:26:31.612Z,37.00
2023-04-16T08:28:58.330Z,41.05
2023-04-16T08:31:25.149Z,39.95
2023-04-16T08:33:52.025Z,43.90
2023-04-16T08:36:19.224Z,41.05
2023-04-16T08:38:45.970Z,37.38
2023-04-16T08:41:13.823Z,38.78
2023-04-16T08:43:45.338Z,38.88
2023-04-16T08:46:12.843Z,33.75
2023-04-16T08:48:42.358Z,35.88
2023-04-16T08:51:11.208Z,38.25
2023-04-16T08:53:49.812Z,41.20
2023-04-16T08:56:20.900Z,39.78
2023-04-16T08:58:48.185Z,42.38
2023-04-16T09:01:15.038Z,38.25
2023-04-16T09:03:42.168Z,38.63
2023-04-16T09:06:10.111Z,37.03
2023-04-16T09:08:38.323Z,39.90
2023-04-16T09:11:05.095Z,43.70
2023-04-16T09:13:32.359Z,36.50
2023-04-16T09:16:00.155Z,37.53
2023-04-16T09:18:28.277Z,37.28
2023-04-16T09:20:56.511Z,33.83
2023-04-16T09:23:23.442Z,34.58
2023-04-16T09:25:50.182Z,31.77
2023-04-16T09:28:42.605Z,38.28
2023-04-16T09:31:16.629Z,39.00
2023-04-16T09:33:44.674Z,37.58
2023-04-16T09:36:11.528Z,41.20
2023-04-16T09:38:49.081Z,36.25
2023-04-16T09:41:16.828Z,34.83
2023-04-16T09:43:55.287Z,34.35
2023-04-16T09:46:22.133Z,40.75
2023-04-16T09:48:48.900Z,36.20
2023-04-16T09:51:15.688Z,37.08
2023-04-16T09:53:42.381Z,35.50
2023-04-16T09:56:09.225Z,36.90
2023-04-16T09:58:36.708Z,31.88
2023-04-16T10:01:11.353Z,36.72
2023-04-16T10:03:41.704Z,36.22
2023-04-16T10:06:19.772Z,35.03
2023-04-16T10:08:50.871Z,35.72
2023-04-16T10:11:19.046Z,39.50
2023-04-16T10:13:46.154Z,39.42
2023-04-16T10:16:13.431Z,33.03
2023-04-16T10:18:41.603Z,36.83
2023-04-16T10:21:08.933Z,35.30
2023-04-16T10:23:35.904Z,45.30
2023-04-16T10:26:03.193Z,35.10
2023-04-16T10:28:31.187Z,36.53
2023-04-16T10:30:58.842Z,35.28
2023-04-16T10:33:27.735Z,34.90
2023-04-16T10:36:10.999Z,39.17
2023-04-16T10:38:50.922Z,39.00
2023-04-16T10:41:17.610Z,37.75
2023-04-16T10:43:47.294Z,36.50
2023-04-16T10:46:24.208Z,34.83
2023-04-16T10:48:53.998Z,34.92
2023-04-16T10:51:34.682Z,36.33
2023-04-16T10:54:20.286Z,32.40
2023-04-16T10:56:47.764Z,34.78
2023-04-16T10:59:18.676Z,35.25
2023-04-16T11:01:47.571Z,36.97
2023-04-16T11:04:20.342Z,31.65
2023-04-16T11:07:11.917Z,33.65
2023-04-16T11:09:53.602Z,28.30
2023-04-16T11:12:27.894Z,31.80
2023-04-16T11:15:14.956Z,30.65
2023-04-16T11:17:44.166Z,31.55
2023-04-16T11:20:28.025Z,25.73
2023-04-16T11:22:56.604Z,29.88
2023-04-16T11:25:25.070Z,24.42
2023-04-16T11:27:52.320Z,29.02
2023-04-16T11:30:29.551Z,29.98
2023-04-16T11:32:56.322Z,25.23
2023-04-16T11:35:23.099Z,23.85
2023-04-16T11:37:49.877Z,22.45
2023-04-16T11:40:16.635Z,21.88
2023-04-16T11:42:44.557Z,18.80
2023-04-16T11:45:12.216Z,22.80
2023-04-16T11:47:52.392Z,23.60
2023-04-16T11:50:28.627Z,19.55
2023-04-16T11:53:04.714Z,21.48
2023-04-16T11:55:31.444Z,21.95
2023-04-16T11:58:11.661Z,20.58
2023-04-16T12:00:38.604Z,17.23
2023-04-16T12:03:05.565Z,18.98
2023-04-16T12:05:38.900Z,22.45
2023-04-16T12:08:07.991Z,19.05
2023-04-16T12:10:37.494Z,18.60
2023-04-16T12:13:15.437Z,19.35
2023-04-16T12:15:51.939Z,19.60
2023-04-16T12:20:46.407Z,20.73
2023-04-16T12:23:26.883Z,24.73
2023-04-16T12:25:54.241Z,19.23
2023-04-16T12:28:35.021Z,16.50
2023-04-16T12:31:03.070Z,18.42
2023-04-16T12:33:30.022Z,16.65
2023-04-16T12:35:56.970Z,16.75
2023-04-16T12:38:26.947Z,20.80
2023-04-16T12:40:57.242Z,20.83
2023-04-16T12:43:24.740Z,16.67
2023-04-16T12:45:51.567Z,17.13
2023-04-16T12:48:18.313Z,16.58
2023-04-16T12:50:45.137Z,11.95
2023-04-16T12:53:12.148Z,18.02
2023-04-16T12:55:39.159Z,19.58
2023-04-16T12:58:05.874Z,17.23
2023-04-16T13:00:33.017Z,15.57
2023-04-16T13:03:00.262Z,16.63
2023-04-16T13:05:27.346Z,17.42
2023-04-16T13:07:54.316Z,14.02
2023-04-16T13:10:22.246Z,18.52
2023-04-16T13:12:49.201Z,20.73
2023-04-16T13:15:16.106Z,21.25
2023-04-16T13:17:42.879Z,20.75
2023-04-16T13:20:10.347Z,16.42
2023-04-16T13:22:37.183Z,17.25
2023-04-16T13:25:04.015Z,16.17
2023-04-16T13:27:32.263Z,14.45
2023-04-16T13:29:59.052Z,18.55
2023-04-16T13:32:25.923Z,16.23
2023-04-16T13:34:52.930Z,16.20
2023-04-16T13:37:19.635Z,15.90
2023-04-16T13:39:46.635Z,20.73
2023-04-16T13:42:13.350Z,15.60
2023-04-16T13:44:40.102Z,15.30
2023-04-16T13:47:06.952Z,16.45
2023-04-16T13:49:36.156Z,19.10
2023-04-16T13:52:03.384Z,17.15
2023-04-16T13:54:30.136Z,19.27
2023-04-16T13:56:57.024Z,19.38
2023-04-16T13:59:23.810Z,19.20
2023-04-16T14:01:51.204Z,18.85
2023-04-16T14:04:18.078Z,18.83
2023-04-16T14:06:45.088Z,17.75
2023-04-16T14:09:12.020Z,21.30
2023-04-16T14:11:38.821Z,21.67
2023-04-16T14:14:05.663Z,20.15
2023-04-16T14:16:32.451Z,21.55
2023-04-16T14:18:59.184Z,20.50
2023-04-16T14:21:27.291Z,20.83
2023-04-16T14:23:54.089Z,20.67
2023-04-16T14:26:21.445Z,21.00
2023-04-16T14:28:48.518Z,19.95
2023-04-16T14:31:15.301Z,20.48
2023-04-16T14:33:42.049Z,20.60
2023-04-16T14:36:08.939Z,22.45
2023-04-16T14:38:38.572Z,18.95
2023-04-16T14:41:05.333Z,24.25
2023-04-16T14:43:32.109Z,21.13
2023-04-16T14:45:59.164Z,23.52
2023-04-16T14:48:26.298Z,21.38
2023-04-16T14:50:56.447Z,22.15
2023-04-16T14:53:23.837Z,21.58
2023-04-16T14:55:52.007Z,27.25
2023-04-16T14:58:18.985Z,23.23
2023-04-16T15:00:45.932Z,26.10
2023-04-16T15:03:13.185Z,24.95
2023-04-16T15:05:40.075Z,29.35
2023-04-16T15:08:07.420Z,29.15
2023-04-16T15:10:35.190Z,28.00
2023-04-16T15:13:01.897Z,28.92
2023-04-16T15:15:28.861Z,25.67
2023-04-16T15:17:57.181Z,30.65
2023-04-16T15:20:23.889Z,27.85
2023-04-16T15:22:50.662Z,28.88
2023-04-16T15:25:17.568Z,28.70
2023-04-16T15:27:44.296Z,27.83
2023-04-16T15:30:12.809Z,35.00
2023-04-16T15:32:39.535Z,28.33
2023-04-16T15:35:06.907Z,31.98
2023-04-16T15:37:34.229Z,33.38
2023-04-16T15:40:01.371Z,35.40
2023-04-16T15:42:28.152Z,36.13
2023-04-16T15:44:54.853Z,34.42
2023-04-16T15:47:21.668Z,36.60
2023-04-16T15:49:48.368Z,33.50
2023-04-16T15:52:15.928Z,35.88
2023-04-16T15:54:43.167Z,41.28
2023-04-16T15:57:09.859Z,30.40
2023-04-16T15:59:36.581Z,39.35
2023-04-16T16:02:03.343Z,35.50
2023-04-16T16:04:30.341Z,31.70
2023-04-16T16:06:57.270Z,41.00
2023-04-16T16:09:26.906Z,33.78
2023-04-16T16:11:54.685Z,39.33
2023-04-16T16:14:22.169Z,33.47
2023-04-16T16:16:48.850Z,35.75
2023-04-16T16:19:15.549Z,37.03
2023-04-16T16:21:42.330Z,33.13
2023-04-16T16:24:09.605Z,39.97
2023-04-16T16:26:36.787Z,39.42
2023-04-16T16:29:03.850Z,38.38
2023-04-16T16:31:30.681Z,40.85
2023-04-16T16:33:57.516Z,40.25
2023-04-16T16:36:24.346Z,42.53
2023-04-16T16:38:53.812Z,37.60
2023-04-16T16:41:20.734Z,35.28
2023-04-16T16:43:47.456Z,35.25
2023-04-16T16:46:14.197Z,36.70
2023-04-16T16:48:41.077Z,37.25
2023-04-16T16:51:10.788Z,38.20
2023-04-16T16:53:37.689Z,40.78
2023-04-16T16:56:04.572Z,34.47
2023-04-16T16:58:32.168Z,41.38
2023-04-16T17:00:59.424Z,39.67
2023-04-16T17:03:26.335Z,39.47
2023-04-16T17:05:53.662Z,40.97
2023-04-16T17:08:20.558Z,40.53
2023-04-16T17:10:47.278Z,41.33
2023-04-16T17:13:15.280Z,38.83
2023-04-16T17:15:42.172Z,45.55
2023-04-16T17:18:08.890Z,38.90
2023-04-16T17:20:35.683Z,38.45
2023-04-16T17:23:02.562Z,35.78
2023-04-16T17:25:29.656Z,42.83
2023-04-16T17:27:56.576Z,43.47
2023-04-16T17:30:27.938Z,38.97
2023-04-16T17:32:54.774Z,40.70
2023-04-16T17:35:21.576Z,41.90
2023-04-16T17:37:48.242Z,40.10
2023-04-16T17:40:18.226Z,41.72
2023-04-16T17:42:45.628Z,35.22
2023-04-16T17:45:12.650Z,44.53
2023-04-16T17:47:39.442Z,36.88
2023-04-16T17:50:07.425Z,39.08
2023-04-16T17:52:34.275Z,39.72
2023-04-16T17:55:01.899Z,42.75
2023-04-16T17:57:28.680Z,40.40
2023-04-16T17:59:55.487Z,40.95
2023-04-16T18:02:22.722Z,40.78
2023-04-16T18:04:49.773Z,41.10
2023-04-16T18:07:16.508Z,37.65
2023-04-16T18:09:43.292Z,42.70
2023-04-16T18:12:10.061Z,39.13
2023-04-16T18:14:37.878Z,36.58
2023-04-16T18:17:06.490Z,38.88
2023-04-16T18:19:35.601Z,41.85
2023-04-16T18:22:02.430Z,37.17
2023-04-16T18:24:29.526Z,40.08
2023-04-16T18:26:56.886Z,40.35
2023-04-16T18:29:25.298Z,42.72
2023-04-16T18:31:52.387Z,45.75
2023-04-16T18:34:19.347Z,44.22
2023-04-16T18:36:46.349Z,36.15
2023-04-16T18:39:13.133Z,41.15
2023-04-16T18:41:41.050Z,41.35
2023-04-16T18:44:08.072Z,42.40
2023-04-16T18:46:34.897Z,42.22
2023-04-16T18:49:01.708Z,41.95
2023-04-16T18:51:28.631Z,41.80
2023-04-16T18:53:55.470Z,43.85
2023-04-16T18:56:22.253Z,41.75
2023-04-16T18:58:49.747Z,48.13
2023-04-16T19:01:16.821Z,43.38
2023-04-16T19:03:43.838Z,42.42
2023-04-16T19:06:10.660Z,48.05
2023-04-16T19:08:37.402Z,42.22
2023-04-16T19:11:04.116Z,41.38
2023-04-16T19:13:32.387Z,44.53
2023-04-16T19:16:00.139Z,43.75
2023-04-16T19:18:27.018Z,38.65
2023-04-16T19:21:00.844Z,39.58
2023-04-16T19:23:28.133Z,39.55
2023-04-16T19:25:58.018Z,42.38
2023-04-16T19:28:25.400Z,37.42
2023-04-16T19:30:52.840Z,42.75
2023-04-16T19:33:19.644Z,36.28
2023-04-16T19:35:47.063Z,38.95
2023-04-16T19:38:14.500Z,38.00
2023-04-16T19:40:44.527Z,38.95
2023-04-16T19:43:11.208Z,42.22
2023-04-16T19:45:43.909Z,35.85
2023-04-16T19:48:11.429Z,39.53
2023-04-16T19:50:42.212Z,39.55
2023-04-16T19:53:09.094Z,39.08
2023-04-16T19:55:36.636Z,40.80
2023-04-16T19:58:06.712Z,36.35
2023-04-16T20:00:35.022Z,38.13
2023-04-16T20:03:02.245Z,37.70
2023-04-16T20:05:29.644Z,31.75
2023-04-16T20:07:56.667Z,42.65
2023-04-16T20:10:24.043Z,32.10
2023-04-16T20:12:51.090Z,40.78
2023-04-16T20:15:18.213Z,32.67
2023-04-16T20:17:45.128Z,33.38
2023-04-16T20:20:11.979Z,35.38
2023-04-16T20:22:39.261Z,39.63
2023-04-16T20:25:07.354Z,33.17
2023-04-16T20:27:34.237Z,36.15
2023-04-16T20:30:01.484Z,33.50
2023-04-16T20:32:28.321Z,36.53
2023-04-16T20:34:55.838Z,33.63
2023-04-16T20:37:22.728Z,34.40
2023-04-16T20:39:50.442Z,33.63
2023-04-16T20:42:18.190Z,31.00
2023-04-16T20:44:50.481Z,31.38
2023-04-16T20:47:17.406Z,38.63
2023-04-16T20:49:49.506Z,32.35
2023-04-16T20:52:16.984Z,33.70
2023-04-16T20:54:43.762Z,31.42
2023-04-16T20:57:10.466Z,35.25
2023-04-16T20:59:37.249Z,33.90
2023-04-16T21:02:04.029Z,31.27
2023-04-16T21:04:31.171Z,30.58
2023-04-16T21:06:57.957Z,27.13
2023-04-16T21:09:24.890Z,28.50
2023-04-16T21:11:51.901Z,30.55
2023-04-16T21:14:18.703Z,32.13
2023-04-16T21:16:45.631Z,27.42
2023-04-16T21:19:12.497Z,29.55
2023-04-16T21:21:39.823Z,30.88
2023-04-16T21:24:07.129Z,28.30
2023-04-16T21:26:33.908Z,34.92
2023-04-16T21:29:00.675Z,25.83
2023-04-16T21:31:27.591Z,29.98
2023-04-16T21:33:54.471Z,31.33
2023-04-16T21:36:21.192Z,29.95
2023-04-16T21:38:47.900Z,24.00
2023-04-16T21:41:14.559Z,28.42
2023-04-16T21:43:41.271Z,27.92
2023-04-16T21:46:08.090Z,25.92
2023-04-16T21:48:34.820Z,28.90
2023-04-16T21:51:06.971Z,28.77
2023-04-16T21:53:34.396Z,30.15
2023-04-16T21:56:01.228Z,27.52
2023-04-16T21:58:28.020Z,28.20
2023-04-16T22:00:54.943Z,27.08
2023-04-16T22:03:27.834Z,29.50
2023-04-16T22:06:01.125Z,33.00
2023-04-16T22:08:29.088Z,27.80
2023-04-16T22:11:00.084Z,28.08
2023-04-16T22:13:27.264Z,28.05
2023-04-16T22:15:55.106Z,31.38
2023-04-16T22:18:25.696Z,28.55
2023-04-16T22:20:56.229Z,28.20
2023-04-16T22:23:26.214Z,25.30
2023-04-16T22:25:54.918Z,29.98
2023-04-16T22:28:21.778Z,29.10
2023-04-16T22:30:48.988Z,29.98
2023-04-16T22:33:15.923Z,29.55
2023-04-16T22:35:42.726Z,29.33
2023-04-16T22:38:10.435Z,28.40
2023-04-16T22:40:37.312Z,31.40
2023-04-16T22:43:04.874Z,25.80
2023-04-16T22:45:31.711Z,28.70
2023-04-16T22:47:58.554Z,30.15
2023-04-16T22:50:25.302Z,23.02
2023-04-16T22:52:51.999Z,28.80
2023-04-16T22:55:18.818Z,25.95
2023-04-16T22:57:45.490Z,32.17
2023-04-16T23:00:17.908Z,35.08
2023-04-16T23:02:45.136Z,29.20
2023-04-16T23:05:12.221Z,23.65
2023-04-16T23:07:39.139Z,26.17
2023-04-16T23:10:06.421Z,28.30
2023-04-16T23:12:33.158Z,27.17
2023-04-16T23:15:00.880Z,27.13
2023-04-16T23:17:28.197Z,26.52
2023-04-16T23:19:55.017Z,27.88
2023-04-16T23:22:21.765Z,28.42
2023-04-16T23:24:48.484Z,30.05
2023-04-16T23:27:15.249Z,28.23
2023-04-16T23:29:42.094Z,26.90
2023-04-16T23:32:08.774Z,24.38
2023-04-16T23:34:35.645Z,35.05
2023-04-16T23:37:02.402Z,22.92
2023-04-16T23:39:29.634Z,26.00
2023-04-16T23:41:57.711Z,26.55
2023-04-16T23:44:24.538Z,26.98
2023-04-16T23:46:51.583Z,23.90
2023-04-16T23:49:18.367Z,26.27
2023-04-16T23:51:45.037Z,25.75
2023-04-16T23:54:11.766Z,28.23
2023-04-16T23:56:38.629Z,27.02
2023-04-16T23:59:05.437Z,26.05
